Time;durP1;ratioP1;P1;durP2;ratioP2;P2;SDS_P1;SDS_P2;PMS_P1;PMS_P2;Temp;Humidity;BMP_temperature;BMP_pressure;BME280_temperature;BME280_humidity;BME280_pressure;Samples;Min_cycle;Max_cycle;Signal;HPM_P1;HPM_P2
2023/07/05 00:01:29;;;;;;;3.35;2.03;;;18.60;77.50;;;;;;5017315;28;20026;-93
2023/07/05 00:03:56;;;;;;;2.80;1.98;;;18.60;77.80;;;;;;5018418;28;20026;-93
2023/07/05 00:06:21;;;;;;;3.53;1.80;;;18.60;78.10;;;;;;5047784;28;20068;-93
2023/07/05 00:08:47;;;;;;;3.83;1.90;;;18.50;78.30;;;;;;5015371;28;20025;-93
2023/07/05 00:11:13;;;;;;;3.72;2.25;;;18.50;78.50;;;;;;5010450;28;20038;-93
2023/07/05 00:13:39;;;;;;;4.45;1.92;;;18.50;78.50;;;;;;5007597;28;20036;-87
2023/07/05 00:16:05;;;;;;;3.45;1.95;;;18.60;78.70;;;;;;5025616;28;20519;-87
2023/07/05 00:18:31;;;;;;;2.92;1.80;;;18.60;78.70;;;;;;5032881;28;20473;-93
2023/07/05 00:21:01;;;;;;;3.33;2.17;;;18.60;78.60;;;;;;5029893;28;20036;-87
2023/07/05 00:23:29;;;;;;;3.50;2.08;;;18.60;78.70;;;;;;5037346;28;20060;-87
2023/07/05 00:25:54;;;;;;;3.42;2.08;;;18.70;78.80;;;;;;5027722;28;20022;-87
2023/07/05 00:28:20;;;;;;;3.00;1.83;;;18.70;78.90;;;;;;5025640;28;20021;-86
2023/07/05 00:30:46;;;;;;;4.70;2.05;;;18.70;79.00;;;;;;5029386;28;20484;-87
2023/07/05 00:33:12;;;;;;;2.03;1.60;;;18.70;78.90;;;;;;5028073;28;20187;-86
2023/07/05 00:35:50;;;;;;;2.58;2.00;;;18.70;79.00;;;;;;5031675;28;20025;-93
2023/07/05 00:38:16;;;;;;;3.30;1.90;;;18.70;79.00;;;;;;5037467;28;20111;-93
2023/07/05 00:40:42;;;;;;;4.68;2.20;;;18.70;79.30;;;;;;5042218;28;20056;-92
2023/07/05 00:43:08;;;;;;;3.50;1.70;;;18.70;79.30;;;;;;5030102;28;20017;-93
2023/07/05 00:45:59;;;;;;;5.15;2.28;;;18.70;79.40;;;;;;5024691;28;20025;-86
2023/07/05 00:48:57;;;;;;;6.53;2.08;;;18.70;79.40;;;;;;5047414;28;20521;-86
2023/07/05 00:51:29;;;;;;;3.30;1.75;;;18.60;79.60;;;;;;5040158;28;20034;-87
2023/07/05 00:53:59;;;;;;;3.38;1.88;;;18.60;79.80;;;;;;5037444;28;20022;-87
2023/07/05 00:56:30;;;;;;;1.42;1.25;;;18.60;79.80;;;;;;5028763;28;20037;-87
2023/07/05 00:58:57;;;;;;;2.73;1.27;;;18.60;79.90;;;;;;5029094;28;20030;-93
2023/07/05 01:01:24;;;;;;;3.50;1.83;;;18.60;80.00;;;;;;5014946;28;20021;-93
2023/07/05 01:03:53;;;;;;;2.13;1.63;;;18.60;80.00;;;;;;5041172;28;20092;-93
2023/07/05 01:06:22;;;;;;;2.00;1.23;;;18.60;80.00;;;;;;5030096;28;20096;-93
2023/07/05 01:08:49;;;;;;;9.88;1.75;;;18.70;80.00;;;;;;5000605;28;20041;-92
2023/07/05 01:11:26;;;;;;;1.63;1.00;;;18.60;80.10;;;;;;5016707;28;20116;-92
2023/07/05 01:14:02;;;;;;;2.05;1.40;;;18.60;80.10;;;;;;5028126;28;20036;-86
2023/07/05 01:16:46;;;;;;;1.63;1.17;;;18.60;80.10;;;;;;5022825;28;20037;-92
2023/07/05 01:19:36;;;;;;;1.85;1.25;;;18.60;80.20;;;;;;5032028;28;20044;-87
2023/07/05 01:22:07;;;;;;;1.83;1.35;;;18.60;80.50;;;;;;5023992;28;20040;-87
2023/07/05 01:24:58;;;;;;;1.67;0.80;;;18.60;80.70;;;;;;5032586;28;20024;-87
2023/07/05 01:27:55;;;;;;;1.88;0.95;;;18.60;80.60;;;;;;5021081;28;20025;-87
2023/07/05 01:30:48;;;;;;;1.25;1.00;;;18.60;80.70;;;;;;5038491;28;20034;-87
2023/07/05 01:33:22;;;;;;;1.88;1.17;;;18.60;80.80;;;;;;5027542;28;20033;-91
2023/07/05 01:35:52;;;;;;;4.28;1.10;;;18.50;81.00;;;;;;5031962;28;20069;-88
2023/07/05 01:38:17;;;;;;;1.67;1.05;;;18.60;81.10;;;;;;5045121;28;20025;-87
2023/07/05 01:40:51;;;;;;;3.63;1.30;;;18.60;81.10;;;;;;5029643;28;20053;-87
2023/07/05 01:43:17;;;;;;;1.65;1.23;;;18.60;81.10;;;;;;5044194;28;20083;-87
2023/07/05 01:46:07;;;;;;;2.40;1.58;;;18.60;81.20;;;;;;5046873;28;20095;-93
2023/07/05 01:48:54;;;;;;;3.28;1.70;;;18.60;81.30;;;;;;5025090;28;20033;-87
2023/07/05 01:51:26;;;;;;;2.00;1.30;;;18.60;81.40;;;;;;5045827;28;20032;-87
2023/07/05 01:53:52;;;;;;;;;;;18.60;81.40;;;;;;5024114;28;20120;-87
2023/07/05 01:56:25;;;;;;;2.65;1.25;;;18.60;81.60;;;;;;5033743;28;19992;-87
2023/07/05 01:58:54;;;;;;;1.75;0.73;;;18.60;81.40;;;;;;5032224;28;20465;-87
2023/07/05 02:01:23;;;;;;;4.88;1.42;;;18.60;81.40;;;;;;5038528;28;20029;-93
2023/07/05 02:03:49;;;;;;;2.15;1.15;;;18.60;81.40;;;;;;5042620;28;20025;-92
2023/07/05 02:06:17;;;;;;;3.92;2.05;;;18.60;81.40;;;;;;5021559;28;20017;-92
2023/07/05 02:08:45;;;;;;;2.35;1.63;;;18.60;81.50;;;;;;5026454;28;20030;-86
2023/07/05 02:11:11;;;;;;;2.38;1.27;;;18.50;81.80;;;;;;5027933;28;20037;-92
2023/07/05 02:13:37;;;;;;;3.13;1.67;;;18.50;82.00;;;;;;5033832;28;20018;-91
2023/07/05 02:16:03;;;;;;;1.23;0.88;;;18.50;82.10;;;;;;5031800;28;20033;-92
2023/07/05 02:18:29;;;;;;;1.60;0.95;;;18.50;82.30;;;;;;5009738;28;20514;-93
2023/07/05 02:20:56;;;;;;;3.97;1.60;;;18.50;82.40;;;;;;5010369;28;20084;-93
2023/07/05 02:23:24;;;;;;;3.60;1.40;;;18.50;82.50;;;;;;5016472;28;20447;-86
2023/07/05 02:25:51;;;;;;;1.73;1.02;;;18.50;82.70;;;;;;4999246;28;20380;-92
2023/07/05 02:28:17;;;;;;;1.15;0.90;;;18.50;83.10;;;;;;5029572;28;20053;-93
2023/07/05 02:30:43;;;;;;;1.73;1.30;;;18.50;83.10;;;;;;5032692;28;20076;-87
2023/07/05 02:33:09;;;;;;;1.25;1.08;;;18.50;83.10;;;;;;5022405;28;20033;-87
2023/07/05 02:35:39;;;;;;;1.90;1.42;;;18.50;83.00;;;;;;5018978;28;20107;-86
2023/07/05 02:38:06;;;;;;;2.25;1.48;;;18.50;82.90;;;;;;5042136;28;20144;-87
2023/07/05 02:40:32;;;;;;;1.77;0.90;;;18.50;83.00;;;;;;5043584;28;20076;-86
2023/07/05 02:42:59;;;;;;;1.88;1.02;;;18.50;83.10;;;;;;5029113;28;20025;-87
2023/07/05 02:45:26;;;;;;;2.60;1.15;;;18.50;83.10;;;;;;5038099;28;20030;-93
2023/07/05 02:47:52;;;;;;;2.35;1.23;;;18.50;83.20;;;;;;5027263;28;20030;-93
2023/07/05 02:50:17;;;;;;;1.25;0.80;;;18.60;83.30;;;;;;5030772;28;20032;-92
2023/07/05 02:52:44;;;;;;;2.03;0.60;;;18.50;83.30;;;;;;5011345;28;20065;-94
2023/07/05 02:55:10;;;;;;;6.38;1.40;;;18.50;83.50;;;;;;5033205;28;20049;-93
2023/07/05 02:57:35;;;;;;;1.50;0.95;;;18.40;83.50;;;;;;5025036;28;20413;-86
2023/07/05 03:00:03;;;;;;;1.15;0.80;;;18.40;83.50;;;;;;5029146;28;20091;-86
2023/07/05 03:02:28;;;;;;;1.77;1.05;;;18.40;83.40;;;;;;5023916;28;20025;-93
2023/07/05 03:04:54;;;;;;;1.27;1.10;;;18.40;83.10;;;;;;5017101;28;20091;-91
2023/07/05 03:07:20;;;;;;;0.57;0.50;;;18.40;82.60;;;;;;5008859;28;20045;-93
2023/07/05 03:09:48;;;;;;;1.05;0.70;;;18.30;82.40;;;;;;5021717;28;20044;-92
2023/07/05 03:12:15;;;;;;;0.65;0.65;;;18.20;81.30;;;;;;5014102;28;20037;-93
2023/07/05 03:14:41;;;;;;;1.73;0.82;;;18.20;81.20;;;;;;5043033;28;20423;-86
2023/07/05 03:17:06;;;;;;;1.75;0.88;;;18.10;81.20;;;;;;5026402;28;20045;-93
2023/07/05 03:19:32;;;;;;;1.45;0.90;;;18.10;81.20;;;;;;5016292;28;20122;-92
2023/07/05 03:21:58;;;;;;;2.90;0.98;;;18.10;80.80;;;;;;5026507;28;20029;-93
2023/07/05 03:24:24;;;;;;;0.82;0.82;;;17.90;79.50;;;;;;5024615;28;20480;-92
2023/07/05 03:26:54;;;;;;;5.10;1.10;;;17.70;78.60;;;;;;5009786;28;20022;-93
2023/07/05 03:29:19;;;;;;;1.73;1.20;;;17.60;78.40;;;;;;5013642;28;20461;-86
2023/07/05 03:31:45;;;;;;;1.40;1.17;;;17.50;78.60;;;;;;5029944;28;20116;-86
2023/07/05 03:34:11;;;;;;;2.22;1.15;;;17.50;78.60;;;;;;5027895;28;20045;-93
2023/07/05 03:36:37;;;;;;;1.50;1.02;;;17.40;78.20;;;;;;5013468;28;20031;-86
2023/07/05 03:39:02;;;;;;;1.52;1.00;;;17.30;78.20;;;;;;5004623;28;20050;-86
2023/07/05 03:41:28;;;;;;;2.80;1.45;;;17.20;78.00;;;;;;5032979;28;20109;-92
2023/07/05 03:44:00;;;;;;;1.10;1.00;;;17.20;78.00;;;;;;5028644;28;20023;-93
2023/07/05 03:46:26;;;;;;;;;;;17.10;78.00;;;;;;5039623;28;20028;-86
2023/07/05 03:48:52;;;;;;;1.92;1.38;;;17.10;77.90;;;;;;5021730;28;19913;-94
2023/07/05 03:51:20;;;;;;;2.33;1.13;;;17.00;77.70;;;;;;5012071;28;20034;-92
2023/07/05 03:53:54;;;;;;;1.77;1.08;;;17.00;77.50;;;;;;5049277;28;20452;-93
2023/07/05 03:56:21;;;;;;;2.42;1.00;;;17.00;77.50;;;;;;5029957;28;20040;-92
2023/07/05 03:58:47;;;;;;;1.00;0.90;;;16.90;77.50;;;;;;5016677;28;20040;-93
2023/07/05 04:01:21;;;;;;;1.23;0.90;;;16.90;77.30;;;;;;5019909;28;20037;-86
2023/07/05 04:03:54;;;;;;;1.10;0.77;;;16.80;77.20;;;;;;5026295;28;20370;-93
2023/07/05 04:06:23;;;;;;;1.20;0.80;;;16.80;77.50;;;;;;5026409;28;20435;-87
2023/07/05 04:08:48;;;;;;;1.73;1.10;;;16.80;77.50;;;;;;5045633;28;20021;-92
2023/07/05 04:11:14;;;;;;;2.63;1.35;;;16.80;77.40;;;;;;5041789;28;20033;-93
2023/07/05 04:13:40;;;;;;;0.80;0.70;;;16.80;77.30;;;;;;5005508;28;20025;-91
2023/07/05 04:16:10;;;;;;;1.02;0.70;;;16.70;77.10;;;;;;5017059;28;20125;-93
2023/07/05 04:18:38;;;;;;;0.70;0.70;;;16.70;77.20;;;;;;5037170;28;20029;-93
2023/07/05 04:21:05;;;;;;;3.35;1.17;;;16.70;77.50;;;;;;5043495;28;20488;-94
2023/07/05 04:23:31;;;;;;;1.65;1.10;;;16.70;77.00;;;;;;5023039;28;20021;-86
2023/07/05 04:26:25;;;;;;;1.25;0.85;;;16.70;76.90;;;;;;5019825;28;20018;-92
2023/07/05 04:28:51;;;;;;;1.27;0.98;;;16.70;76.80;;;;;;5021677;28;20645;-93
2023/07/05 04:31:24;;;;;;;2.75;1.08;;;16.70;76.90;;;;;;5015398;28;20025;-94
2023/07/05 04:33:49;;;;;;;2.88;1.58;;;16.60;76.90;;;;;;5042187;28;20502;-93
2023/07/05 04:36:15;;;;;;;2.28;0.75;;;16.60;76.60;;;;;;5012605;28;20026;-93
2023/07/05 04:38:41;;;;;;;1.80;1.00;;;16.60;76.80;;;;;;5026191;28;20029;-94
2023/07/05 04:41:06;;;;;;;1.70;1.00;;;16.70;76.80;;;;;;5015077;28;20044;-94
2023/07/05 04:43:32;;;;;;;6.45;1.00;;;16.80;76.80;;;;;;5039324;28;20025;-87
2023/07/05 04:46:00;;;;;;;2.70;1.50;;;16.80;76.70;;;;;;5005844;28;20091;-86
2023/07/05 04:48:28;;;;;;;2.25;1.05;;;16.80;76.60;;;;;;5025074;28;20099;-85
2023/07/05 04:50:54;;;;;;;1.95;0.98;;;16.80;76.30;;;;;;5008179;28;20439;-87
2023/07/05 04:53:22;;;;;;;3.38;1.95;;;16.80;76.50;;;;;;5024214;28;20092;-86
2023/07/05 04:55:49;;;;;;;4.78;1.23;;;16.80;76.50;;;;;;5023264;28;20083;-87
2023/07/05 04:58:15;;;;;;;3.85;1.10;;;16.70;76.70;;;;;;5044446;28;20511;-87
2023/07/05 05:00:51;;;;;;;2.13;0.70;;;16.70;76.40;;;;;;5030753;28;20033;-87
2023/07/05 05:03:21;;;;;;;1.83;1.15;;;16.80;76.40;;;;;;5046051;28;20034;-87
2023/07/05 05:05:50;;;;;;;2.78;1.30;;;16.80;76.40;;;;;;5042398;28;20030;-86
2023/07/05 05:08:16;;;;;;;1.80;1.38;;;16.80;76.30;;;;;;5040893;28;20038;-87
2023/07/05 05:10:42;;;;;;;1.30;1.02;;;16.70;76.30;;;;;;5028961;28;20396;-86
2023/07/05 05:13:08;;;;;;;2.92;1.23;;;16.70;76.30;;;;;;5006176;28;20041;-94
2023/07/05 05:15:40;;;;;;;4.28;1.27;;;16.80;76.20;;;;;;5048507;28;20021;-92
2023/07/05 05:18:07;;;;;;;3.70;1.20;;;16.80;75.70;;;;;;5024033;28;20037;-92
2023/07/05 05:20:33;;;;;;;3.35;1.13;;;16.80;75.80;;;;;;5049784;28;20036;-92
2023/07/05 05:22:59;;;;;;;1.80;1.48;;;16.90;75.90;;;;;;5025708;28;20028;-87
2023/07/05 05:25:26;;;;;;;5.05;1.55;;;16.90;75.80;;;;;;5033380;28;20113;-87
2023/07/05 05:27:52;;;;;;;2.22;1.38;;;16.90;75.50;;;;;;5010729;28;20041;-87
2023/07/05 05:30:18;;;;;;;4.00;1.73;;;16.90;75.80;;;;;;5046869;28;20477;-88
2023/07/05 05:32:46;;;;;;;3.63;1.15;;;16.90;74.90;;;;;;5007703;28;20033;-87
2023/07/05 05:35:12;;;;;;;4.40;0.95;;;17.00;74.80;;;;;;5042494;28;20076;-87
2023/07/05 05:37:38;;;;;;;2.05;1.08;;;17.00;74.60;;;;;;5015554;28;20559;-87
2023/07/05 05:40:05;;;;;;;5.20;1.48;;;17.00;74.50;;;;;;5017065;28;20042;-87
2023/07/05 05:42:31;;;;;;;3.13;1.50;;;17.10;74.50;;;;;;5003175;28;20404;-86
2023/07/05 05:44:57;;;;;;;2.92;1.48;;;17.10;74.20;;;;;;5017522;28;20032;-87
2023/07/05 05:47:23;;;;;;;1.65;1.40;;;17.10;74.30;;;;;;5044800;28;20115;-87
2023/07/05 05:49:49;;;;;;;3.30;1.38;;;17.10;74.40;;;;;;5018811;28;20064;-87
2023/07/05 05:52:14;;;;;;;2.28;1.98;;;17.10;74.10;;;;;;5013111;28;20041;-87
2023/07/05 05:54:40;;;;;;;2.38;1.33;;;17.00;73.90;;;;;;5012672;28;20041;-88
2023/07/05 05:57:06;;;;;;;5.22;1.80;;;17.00;74.10;;;;;;5026440;28;20041;-87
2023/07/05 05:59:32;;;;;;;1.60;1.00;;;17.10;73.70;;;;;;5011859;28;20034;-93
2023/07/05 06:01:58;;;;;;;3.65;1.10;;;17.20;73.60;;;;;;5007357;28;20116;-94
2023/07/05 06:04:23;;;;;;;2.65;1.35;;;17.20;73.90;;;;;;5030214;28;20053;-93
2023/07/05 06:06:49;;;;;;;4.57;1.52;;;17.20;72.70;;;;;;5013144;28;20022;-87
2023/07/05 06:09:15;;;;;;;2.20;1.40;;;17.10;71.90;;;;;;5029982;28;20034;-88
2023/07/05 06:11:41;;;;;;;2.55;1.40;;;17.10;72.20;;;;;;5021568;28;20030;-88
2023/07/05 06:14:08;;;;;;;3.72;1.73;;;17.00;72.40;;;;;;5027319;28;20038;-87
2023/07/05 06:16:34;;;;;;;1.38;1.00;;;17.00;72.80;;;;;;5035508;28;20021;-87
2023/07/05 06:19:00;;;;;;;2.58;1.13;;;16.90;72.30;;;;;;5030534;28;20033;-88
2023/07/05 06:21:26;;;;;;;1.77;1.42;;;16.90;72.70;;;;;;5008010;28;20034;-87
2023/07/05 06:23:52;;;;;;;1.92;0.80;;;16.90;72.70;;;;;;5029013;28;20040;-88
2023/07/05 06:26:19;;;;;;;1.08;0.88;;;16.90;72.60;;;;;;5024039;28;20057;-87
2023/07/05 06:28:46;;;;;;;2.40;1.25;;;16.90;72.50;;;;;;5029839;28;20174;-88
2023/07/05 06:31:11;;;;;;;3.15;0.90;;;17.00;72.50;;;;;;5033096;28;20037;-94
2023/07/05 06:33:39;;;;;;;1.15;1.00;;;17.10;72.40;;;;;;5035185;28;20025;-94
2023/07/05 06:36:06;;;;;;;3.05;1.48;;;17.00;72.00;;;;;;5019320;28;20046;-95
2023/07/05 06:38:33;;;;;;;4.43;1.05;;;17.00;72.20;;;;;;5031586;28;20032;-92
2023/07/05 06:40:59;;;;;;;2.58;1.35;;;16.90;72.30;;;;;;5017405;28;20056;-94
2023/07/05 06:43:25;;;;;;;1.45;0.88;;;16.80;72.60;;;;;;4991972;28;20014;-87
2023/07/05 06:45:53;;;;;;;1.25;1.00;;;16.80;73.00;;;;;;5044345;28;20028;-87
2023/07/05 06:48:20;;;;;;;1.88;0.77;;;16.70;73.60;;;;;;5022524;28;20686;-88
2023/07/05 06:50:54;;;;;;;2.40;1.00;;;16.70;73.90;;;;;;5022261;28;20263;-87
2023/07/05 06:53:20;;;;;;;0.95;0.80;;;16.60;74.10;;;;;;5021609;28;20030;-88
2023/07/05 06:55:48;;;;;;;2.15;1.05;;;16.50;74.90;;;;;;5039147;28;20034;-88
2023/07/05 06:58:15;;;;;;;2.53;1.48;;;16.40;75.50;;;;;;5033602;28;20481;-88
2023/07/05 07:00:41;;;;;;;1.55;0.95;;;16.40;75.80;;;;;;5050392;28;20048;-94
2023/07/05 07:03:06;;;;;;;1.23;1.08;;;16.40;76.10;;;;;;5016858;28;20033;-93
2023/07/05 07:05:32;;;;;;;1.42;0.98;;;16.40;75.80;;;;;;5010023;28;20026;-92
2023/07/05 07:07:59;;;;;;;1.05;0.80;;;16.30;76.00;;;;;;5030471;28;20018;-93
2023/07/05 07:10:25;;;;;;;0.70;0.70;;;16.20;76.30;;;;;;5032762;28;20026;-94
2023/07/05 07:12:50;;;;;;;1.88;0.70;;;16.20;76.80;;;;;;5017715;28;20017;-94
2023/07/05 07:15:16;;;;;;;0.98;0.70;;;16.10;76.30;;;;;;4999806;28;20034;-94
2023/07/05 07:18:19;;;;;;;0.95;0.85;;;16.10;76.30;;;;;;5017124;28;20029;-93
2023/07/05 07:20:53;;;;;;;0.50;0.50;;;16.10;75.60;;;;;;5044802;28;20033;-87
2023/07/05 07:23:19;;;;;;;1.08;0.85;;;15.90;75.50;;;;;;5031131;28;20516;-87
2023/07/05 07:25:44;;;;;;;0.90;0.85;;;15.90;75.90;;;;;;5027968;28;20104;-88
2023/07/05 07:28:10;;;;;;;1.58;0.70;;;15.90;75.80;;;;;;5021422;28;20033;-87
2023/07/05 07:30:35;;;;;;;0.63;0.40;;;16.00;75.90;;;;;;5014161;28;20447;-88
2023/07/05 07:33:01;;;;;;;1.00;0.68;;;16.10;75.90;;;;;;5001972;28;20029;-87
2023/07/05 07:35:27;;;;;;;0.70;0.68;;;16.10;75.40;;;;;;5007380;28;20033;-94
2023/07/05 07:37:53;;;;;;;0.73;0.47;;;16.20;75.40;;;;;;5027683;28;20038;-87
2023/07/05 07:40:18;;;;;;;1.55;0.73;;;16.20;75.30;;;;;;5007631;28;20104;-93
2023/07/05 07:42:44;;;;;;;2.17;0.80;;;16.20;75.30;;;;;;5021451;28;20025;-94
2023/07/05 07:45:10;;;;;;;3.78;1.02;;;16.30;75.00;;;;;;5034729;28;20120;-93
2023/07/05 07:47:35;;;;;;;1.35;0.57;;;16.20;75.10;;;;;;5013946;28;20025;-94
2023/07/05 07:50:01;;;;;;;3.25;0.93;;;16.20;75.60;;;;;;5014731;28;20021;-93
2023/07/05 07:52:27;;;;;;;0.70;0.52;;;16.20;75.60;;;;;;4996595;28;20021;-88
2023/07/05 07:54:56;;;;;;;1.00;0.47;;;16.20;76.00;;;;;;5016136;28;20076;-88
2023/07/05 07:57:22;;;;;;;1.15;0.60;;;16.30;76.30;;;;;;5040021;28;20135;-88
2023/07/05 07:59:47;;;;;;;2.53;0.40;;;16.30;76.40;;;;;;5030233;28;20120;-88
2023/07/05 08:02:14;;;;;;;1.65;0.50;;;16.20;76.80;;;;;;5033352;28;20034;-88
2023/07/05 08:04:44;;;;;;;2.67;0.93;;;16.20;76.60;;;;;;5033535;28;20026;-87
2023/07/05 08:07:11;;;;;;;1.40;0.88;;;16.20;77.10;;;;;;5050278;28;20045;-88
2023/07/05 08:09:56;;;;;;;1.38;0.75;;;16.00;77.70;;;;;;5044171;28;20038;-93
2023/07/05 08:12:22;;;;;;;4.63;0.82;;;15.90;78.30;;;;;;5021407;28;20036;-92
2023/07/05 08:14:47;;;;;;;3.42;0.80;;;15.90;79.30;;;;;;5037841;28;20026;-93
2023/07/05 08:17:14;;;;;;;1.20;0.90;;;15.90;79.60;;;;;;5026114;28;20029;-88
2023/07/05 08:19:39;;;;;;;2.35;1.20;;;15.80;80.20;;;;;;5001875;28;20037;-87
2023/07/05 08:22:06;;;;;;;4.50;0.82;;;15.80;80.30;;;;;;5031470;28;20033;-87
2023/07/05 08:24:32;;;;;;;0.98;0.75;;;15.80;80.10;;;;;;5029646;28;20373;-88
2023/07/05 08:27:00;;;;;;;1.38;0.90;;;15.80;80.20;;;;;;5016962;28;20025;-91
2023/07/05 08:29:26;;;;;;;3.58;1.27;;;15.80;80.40;;;;;;5029182;28;20488;-91
2023/07/05 08:31:52;;;;;;;1.10;0.90;;;15.80;80.30;;;;;;5014293;28;20036;-92
2023/07/05 08:34:18;;;;;;;1.13;0.90;;;15.80;80.40;;;;;;5044316;28;20033;-93
2023/07/05 08:36:46;;;;;;;1.20;1.00;;;15.80;80.40;;;;;;4998198;28;20112;-92
2023/07/05 08:39:12;;;;;;;2.95;0.98;;;15.80;80.40;;;;;;5031062;28;20053;-92
2023/07/05 08:41:48;;;;;;;3.33;0.98;;;15.90;80.10;;;;;;5014537;28;20488;-89
2023/07/05 08:44:35;;;;;;;0.95;0.95;;;15.90;80.30;;;;;;5046445;28;20026;-89
2023/07/05 08:47:19;;;;;;;2.47;1.50;;;16.00;80.40;;;;;;5037804;28;20056;-91
2023/07/05 08:50:22;;;;;;;2.13;1.00;;;16.20;80.60;;;;;;5044069;28;20022;-92
2023/07/05 08:52:50;;;;;;;1.90;0.90;;;16.40;80.30;;;;;;4998306;28;20113;-93
2023/07/05 08:55:22;;;;;;;1.20;1.00;;;16.60;79.90;;;;;;5019188;28;20041;-86
2023/07/05 08:57:54;;;;;;;2.65;1.40;;;16.70;79.70;;;;;;5043386;28;20467;-91
2023/07/05 09:00:39;;;;;;;2.88;1.23;;;16.90;79.10;;;;;;5026693;28;20116;-87
2023/07/05 09:03:28;;;;;;;2.63;1.17;;;17.00;78.90;;;;;;5028752;28;20057;-92
2023/07/05 09:06:12;;;;;;;2.13;1.75;;;17.00;78.40;;;;;;5038410;28;20021;-86
2023/07/05 09:08:48;;;;;;;1.48;1.10;;;16.90;78.30;;;;;;5025474;28;20026;-91
2023/07/05 09:11:39;;;;;;;1.55;1.10;;;16.80;78.70;;;;;;5024733;28;20049;-86
2023/07/05 09:14:44;;;;;;;1.13;0.80;;;16.70;78.90;;;;;;4999923;28;20041;-87
2023/07/05 09:17:47;;;;;;;1.38;0.52;;;16.60;78.80;;;;;;5019868;28;20037;-86
2023/07/05 09:20:26;;;;;;;1.83;0.73;;;16.10;79.20;;;;;;5018539;28;20168;-91
2023/07/05 09:22:54;;;;;;;2.22;0.60;;;16.00;80.10;;;;;;5021696;28;20094;-86
2023/07/05 09:25:22;;;;;;;2.80;0.80;;;16.00;80.50;;;;;;5016800;28;20064;-86
2023/07/05 09:27:58;;;;;;;1.55;1.25;;;16.10;81.10;;;;;;5031040;28;20025;-91
2023/07/05 09:30:27;;;;;;;1.50;1.13;;;16.30;81.10;;;;;;5030549;28;20532;-85
2023/07/05 09:33:10;;;;;;;1.52;0.90;;;16.30;81.00;;;;;;5034976;28;20033;-92
2023/07/05 09:35:37;;;;;;;0.50;0.43;;;16.00;79.90;;;;;;5042083;28;20030;-93
2023/07/05 09:38:28;;;;;;;0.70;0.70;;;15.50;80.70;;;;;;5035090;28;20028;-92
2023/07/05 09:41:05;;;;;;;4.70;0.65;;;15.30;81.40;;;;;;5054679;28;20045;-91
2023/07/05 09:44:08;;;;;;;1.45;0.90;;;15.20;81.60;;;;;;5074860;28;20044;-92
2023/07/05 09:46:36;;;;;;;0.85;0.80;;;15.10;81.60;;;;;;5049209;28;20025;-92
2023/07/05 09:49:12;;;;;;;1.13;0.50;;;15.10;81.90;;;;;;5055174;28;20013;-92
2023/07/05 09:51:41;;;;;;;1.25;1.10;;;15.10;81.90;;;;;;5044556;28;20033;-85
2023/07/05 09:54:22;;;;;;;2.97;0.98;;;15.10;82.10;;;;;;5030370;28;20118;-86
2023/07/05 09:57:04;;;;;;;6.13;1.00;;;15.10;82.10;;;;;;5026842;28;20078;-86
2023/07/05 09:59:31;;;;;;;3.40;1.25;;;15.20;82.00;;;;;;5047961;28;20036;-92
2023/07/05 10:02:10;;;;;;;0.82;0.68;;;15.10;82.10;;;;;;5031852;28;20252;-86
2023/07/05 10:04:44;;;;;;;3.05;0.60;;;15.10;82.20;;;;;;5020090;28;20472;-86
2023/07/05 10:07:14;;;;;;;3.15;0.77;;;15.20;82.30;;;;;;5043523;28;20025;-86
2023/07/05 10:09:59;;;;;;;1.08;0.98;;;15.20;82.30;;;;;;5045465;28;20105;-93
2023/07/05 10:12:31;;;;;;;1.35;0.73;;;15.30;82.40;;;;;;5027777;28;20026;-92
2023/07/05 10:14:57;;;;;;;0.80;0.80;;;15.30;82.30;;;;;;5032040;28;20030;-92
2023/07/05 10:17:24;;;;;;;2.08;0.80;;;15.40;82.30;;;;;;4999639;28;20520;-94
2023/07/05 10:19:53;;;;;;;3.83;1.40;;;15.50;82.20;;;;;;5024433;28;20383;-86
2023/07/05 10:22:35;;;;;;;2.13;0.63;;;15.50;82.00;;;;;;5050251;28;20028;-92
2023/07/05 10:25:05;;;;;;;1.30;0.75;;;15.60;82.00;;;;;;5016002;28;20037;-92
2023/07/05 10:27:31;;;;;;;3.22;1.13;;;15.60;82.60;;;;;;5040500;28;20028;-86
2023/07/05 10:30:05;;;;;;;0.68;0.63;;;15.50;82.10;;;;;;5029468;28;20056;-86
2023/07/05 10:32:31;;;;;;;2.40;1.08;;;15.50;82.40;;;;;;5031660;28;20080;-86
2023/07/05 10:34:58;;;;;;;1.65;0.90;;;15.50;82.40;;;;;;5007573;28;20042;-93
2023/07/05 10:37:31;;;;;;;7.10;1.25;;;15.50;82.30;;;;;;5015298;28;20029;-94
2023/07/05 10:39:58;;;;;;;1.88;0.93;;;15.40;82.30;;;;;;5031957;28;20144;-93
2023/07/05 10:42:28;;;;;;;2.42;0.77;;;15.50;82.50;;;;;;5011971;28;20033;-87
2023/07/05 10:44:54;;;;;;;1.55;0.70;;;15.50;82.50;;;;;;5015095;28;20120;-87
2023/07/05 10:47:21;;;;;;;2.03;0.60;;;15.40;82.60;;;;;;5013270;28;20030;-86
2023/07/05 10:49:51;;;;;;;1.30;0.82;;;15.50;82.60;;;;;;5037567;28;20063;-86
2023/07/05 10:52:18;;;;;;;3.90;1.58;;;15.50;82.50;;;;;;5038403;28;20037;-87
2023/07/05 10:55:09;;;;;;;1.40;0.85;;;15.50;82.40;;;;;;5013220;28;20484;-86
2023/07/05 10:57:44;;;;;;;3.70;1.08;;;15.50;82.40;;;;;;5041665;28;20072;-87
2023/07/05 11:00:37;;;;;;;2.97;1.20;;;15.50;82.40;;;;;;5028827;28;20049;-87
2023/07/05 11:03:11;;;;;;;1.42;0.73;;;15.60;82.30;;;;;;5037679;28;20060;-91
2023/07/05 11:05:42;;;;;;;2.42;1.10;;;15.60;82.40;;;;;;5048398;28;20536;-91
2023/07/05 11:08:27;;;;;;;2.47;1.17;;;15.60;82.20;;;;;;5050815;28;20476;-86
2023/07/05 11:10:58;;;;;;;2.50;0.93;;;15.70;82.40;;;;;;5035842;28;20485;-86
2023/07/05 11:13:27;;;;;;;3.83;1.00;;;15.80;82.50;;;;;;5028292;28;20029;-86
2023/07/05 11:15:53;;;;;;;0.98;0.90;;;15.90;82.30;;;;;;5021164;28;20445;-86
2023/07/05 11:18:21;;;;;;;2.25;1.00;;;16.00;82.00;;;;;;5042882;28;20022;-86
2023/07/05 11:20:51;;;;;;;1.27;0.65;;;16.10;82.00;;;;;;5037574;28;20072;-86
2023/07/05 11:23:42;;;;;;;1.38;0.80;;;16.20;81.90;;;;;;5043066;28;20018;-86
2023/07/05 11:26:09;;;;;;;3.30;1.50;;;16.30;81.70;;;;;;5025673;28;20388;-86
2023/07/05 11:28:40;;;;;;;2.97;1.27;;;16.30;81.20;;;;;;5030828;28;20024;-86
2023/07/05 11:31:29;;;;;;;3.72;1.10;;;16.40;80.30;;;;;;5037520;28;20064;-86
2023/07/05 11:34:25;;;;;;;3.67;0.90;;;16.60;79.10;;;;;;5021495;28;20037;-86
2023/07/05 11:36:52;;;;;;;1.15;1.05;;;16.80;78.90;;;;;;5023956;28;20145;-86
2023/07/05 11:39:38;;;;;;;2.15;0.88;;;16.90;78.70;;;;;;5031638;28;20038;-87
2023/07/05 11:42:13;;;;;;;2.70;1.55;;;17.10;78.50;;;;;;5030698;28;20120;-85
2023/07/05 11:44:41;;;;;;;0.82;0.70;;;17.20;79.00;;;;;;5022542;28;20085;-86
2023/07/05 11:47:08;;;;;;;1.67;0.95;;;17.40;79.20;;;;;;5031407;28;20108;-90
2023/07/05 11:49:42;;;;;;;0.95;0.60;;;17.70;79.30;;;;;;5029702;28;20056;-91
2023/07/05 11:52:15;;;;;;;6.05;1.70;;;17.80;79.00;;;;;;5025289;28;20021;-90
2023/07/05 11:54:49;;;;;;;1.95;1.27;;;17.90;78.90;;;;;;5034663;28;20037;-89
2023/07/05 11:57:15;;;;;;;1.73;0.82;;;18.00;78.40;;;;;;5030748;28;20026;-90
2023/07/05 11:59:52;;;;;;;2.70;0.88;;;18.00;77.90;;;;;;5026487;28;20056;-89
2023/07/05 12:02:35;;;;;;;0.95;0.70;;;18.10;77.80;;;;;;5029946;28;20084;-89
2023/07/05 12:05:04;;;;;;;0.57;0.47;;;18.40;75.90;;;;;;5023023;28;20389;-90
2023/07/05 12:07:31;;;;;;;2.50;0.93;;;18.40;74.40;;;;;;5032287;28;20010;-89
2023/07/05 12:09:58;;;;;;;2.33;1.17;;;18.40;73.40;;;;;;5030647;28;20026;-90
2023/07/05 12:12:24;;;;;;;4.35;1.58;;;18.40;74.70;;;;;;5027089;28;20041;-85
2023/07/05 12:14:50;;;;;;;2.13;1.27;;;18.20;76.00;;;;;;5005558;28;20116;-86
2023/07/05 12:17:19;;;;;;;2.45;1.30;;;18.00;76.80;;;;;;5034105;28;20030;-86
2023/07/05 12:19:46;;;;;;;3.15;1.13;;;17.90;77.50;;;;;;5028022;28;20384;-86
2023/07/05 12:22:19;;;;;;;2.13;1.05;;;17.70;77.80;;;;;;5021107;28;20041;-86
2023/07/05 12:24:48;;;;;;;0.90;0.88;;;17.50;78.10;;;;;;5040400;28;20029;-86
2023/07/05 12:27:29;;;;;;;1.48;0.90;;;17.30;78.50;;;;;;5037063;28;20044;-86
2023/07/05 12:29:57;;;;;;;2.00;0.65;;;17.10;78.80;;;;;;5044954;28;20026;-90
2023/07/05 12:32:28;;;;;;;0.50;0.50;;;17.10;79.00;;;;;;5024388;28;20024;-89
2023/07/05 12:35:12;;;;;;;0.75;0.75;;;17.20;78.60;;;;;;5009722;28;20040;-89
2023/07/05 12:37:38;;;;;;;1.02;0.82;;;17.20;77.90;;;;;;5023801;28;20396;-89
2023/07/05 12:40:27;;;;;;;1.38;0.93;;;17.10;77.60;;;;;;5043806;28;20046;-90
2023/07/05 12:43:04;;;;;;;2.70;0.88;;;16.90;77.60;;;;;;5038709;28;20476;-85
2023/07/05 12:45:36;;;;;;;1.45;0.80;;;16.90;78.10;;;;;;5039159;28;20052;-85
2023/07/05 12:48:24;;;;;;;1.58;0.60;;;17.00;78.00;;;;;;5043055;28;20071;-87
2023/07/05 12:51:06;;;;;;;1.13;0.73;;;17.20;77.80;;;;;;5014165;28;20045;-89
2023/07/05 12:53:33;;;;;;;2.03;1.17;;;17.20;77.50;;;;;;5024619;28;20029;-89
2023/07/05 12:56:03;;;;;;;0.95;0.90;;;17.20;77.20;;;;;;5023432;28;20362;-90
2023/07/05 12:58:30;;;;;;;1.35;0.80;;;17.20;77.20;;;;;;5028947;28;20033;-91
2023/07/05 13:00:57;;;;;;;1.15;0.68;;;17.10;76.80;;;;;;5014731;28;20099;-90
2023/07/05 13:03:25;;;;;;;1.13;0.85;;;17.00;77.20;;;;;;5022032;28;20049;-91
2023/07/05 13:05:52;;;;;;;2.03;0.75;;;16.90;77.00;;;;;;5030195;28;20057;-91